Terminal Aerodrome Forecast
Issued by NWS Wilmington, OH

Current Version | Previous Version | Text Only | Print | Product List | Glossary Off
Versions: 1 2 3 4 5 6 7 8 9 10 11 12 13 14 15 16 17 18 19 20 21

000
FTUS41 KILN 270800 AAA
TAFILN
TAF AMD
KILN 270856Z 2709/2806 01004KT P6SM FEW070
     FM271400 34012KT P6SM BKN040
     FM280100 34003KT P6SM SCT040=

USA.gov is the U.S. government's official web portal to all federal, state and local government web resources and services.